createdAt,value
2018-09-03T00:01:12.570Z,49.60
2018-09-03T00:03:40.931Z,49.70
2018-09-03T00:06:09.285Z,49.50
2018-09-03T00:08:37.754Z,49.50
2018-09-03T00:11:06.126Z,49.50
2018-09-03T00:13:34.547Z,49.60
2018-09-03T00:16:02.894Z,49.60
2018-09-03T00:18:31.377Z,49.60
2018-09-03T00:20:59.758Z,49.40
2018-09-03T00:23:28.154Z,49.50
2018-09-03T00:25:56.515Z,50.10
2018-09-03T00:28:25.554Z,49.70
2018-09-03T00:30:58.129Z,49.80
2018-09-03T00:33:31.975Z,50.00
2018-09-03T00:36:05.766Z,50.10
2018-09-03T00:38:39.411Z,50.30
2018-09-03T00:41:13.026Z,50.50
2018-09-03T00:43:47.012Z,50.80
2018-09-03T00:46:20.688Z,51.00
2018-09-03T00:48:49.396Z,51.30
2018-09-03T00:51:18.192Z,51.40
2018-09-03T00:53:46.660Z,51.70
2018-09-03T00:56:15.069Z,51.80
2018-09-03T00:58:43.431Z,52.00
2018-09-03T01:01:11.819Z,52.00
2018-09-03T01:03:40.380Z,52.20
2018-09-03T01:06:08.999Z,52.60
2018-09-03T01:08:37.364Z,53.00
2018-09-03T01:11:06.716Z,52.50
2018-09-03T01:13:35.091Z,52.60
2018-09-03T01:16:03.521Z,52.60
2018-09-03T01:18:36.135Z,53.00
2018-09-03T01:21:04.598Z,53.00
2018-09-03T01:23:32.953Z,52.80
2018-09-03T01:26:01.364Z,52.80
2018-09-03T01:28:29.796Z,53.00
2018-09-03T01:30:58.530Z,53.20
2018-09-03T01:33:26.859Z,53.30
2018-09-03T01:35:55.342Z,53.20
2018-09-03T01:38:23.711Z,53.40
2018-09-03T01:40:52.119Z,53.50
2018-09-03T01:43:20.449Z,53.50
2018-09-03T01:45:48.949Z,53.50
2018-09-03T01:48:17.436Z,53.70
2018-09-03T01:50:45.821Z,53.80
2018-09-03T01:53:14.204Z,53.70
2018-09-03T01:55:42.552Z,53.70
2018-09-03T01:58:10.912Z,54.00
2018-09-03T02:00:39.302Z,54.10
2018-09-03T02:03:07.644Z,54.20
2018-09-03T02:05:36.078Z,54.10
2018-09-03T02:08:04.829Z,54.00
2018-09-03T02:10:33.174Z,54.10
2018-09-03T02:13:01.688Z,54.80
2018-09-03T02:15:30.027Z,54.60
2018-09-03T02:17:58.479Z,54.50
2018-09-03T02:20:26.868Z,54.60
2018-09-03T02:22:55.373Z,54.50
2018-09-03T02:25:23.817Z,54.80
2018-09-03T02:27:52.246Z,54.80
2018-09-03T02:30:20.744Z,54.90
2018-09-03T02:32:49.156Z,55.10
2018-09-03T02:35:17.523Z,55.40
2018-09-03T02:37:45.956Z,55.50
2018-09-03T02:40:14.310Z,55.50
2018-09-03T02:42:42.705Z,55.60
2018-09-03T02:45:11.462Z,55.50
2018-09-03T02:47:39.968Z,55.80
2018-09-03T02:50:08.753Z,55.80
2018-09-03T02:52:37.619Z,56.00
2018-09-03T02:55:06.730Z,56.00
2018-09-03T02:57:35.132Z,56.20
2018-09-03T03:00:03.652Z,56.30
2018-09-03T03:02:32.018Z,56.20
2018-09-03T03:05:00.634Z,56.30
2018-09-03T03:07:29.114Z,56.30
2018-09-03T03:09:57.528Z,56.30
2018-09-03T03:12:26.515Z,56.20
2018-09-03T03:14:56.332Z,56.30
2018-09-03T03:17:25.011Z,56.10
2018-09-03T03:19:53.388Z,56.30
2018-09-03T03:22:21.772Z,56.30
2018-09-03T03:24:50.423Z,56.30
2018-09-03T03:27:18.832Z,56.30
2018-09-03T03:29:47.311Z,56.40
2018-09-03T03:32:15.683Z,56.70
2018-09-03T03:34:44.075Z,56.80
2018-09-03T03:37:12.436Z,56.80
2018-09-03T03:39:40.798Z,56.70
2018-09-03T03:42:09.256Z,56.70
2018-09-03T03:44:37.690Z,56.90
2018-09-03T03:47:06.219Z,56.90
2018-09-03T03:49:34.613Z,56.90
2018-09-03T03:52:03.215Z,57.00
2018-09-03T03:54:31.675Z,57.10
2018-09-03T03:57:00.057Z,57.20
2018-09-03T03:59:28.417Z,57.30
2018-09-03T04:01:56.864Z,57.30
2018-09-03T04:04:25.213Z,57.70
2018-09-03T04:06:53.714Z,58.20
2018-09-03T04:09:22.126Z,57.90
2018-09-03T04:11:50.480Z,57.90
2018-09-03T04:14:18.850Z,58.20
2018-09-03T04:16:47.686Z,58.30
2018-09-03T04:19:16.091Z,58.40
2018-09-03T04:21:44.993Z,58.50
2018-09-03T04:24:13.756Z,58.50
2018-09-03T04:26:42.126Z,58.80
2018-09-03T04:29:10.493Z,58.70
2018-09-03T04:31:38.988Z,58.80
2018-09-03T04:34:07.375Z,58.90
2018-09-03T04:36:35.783Z,58.90
2018-09-03T04:39:06.416Z,59.10
2018-09-03T04:41:34.852Z,59.00
2018-09-03T04:44:04.011Z,59.40
2018-09-03T04:46:32.855Z,59.90
2018-09-03T04:49:01.534Z,59.30
2018-09-03T04:51:30.310Z,59.40
2018-09-03T04:53:58.885Z,59.50
2018-09-03T04:56:28.016Z,59.60
2018-09-03T04:58:56.405Z,59.70
2018-09-03T05:01:25.054Z,59.80
2018-09-03T05:03:53.551Z,59.90
2018-09-03T05:06:21.942Z,59.90
2018-09-03T05:08:50.620Z,60.00
2018-09-03T05:11:19.515Z,60.10
2018-09-03T05:13:48.182Z,60.30
2018-09-03T05:16:16.631Z,60.50
2018-09-03T05:18:44.979Z,60.80
2018-09-03T05:21:13.355Z,61.00
2018-09-03T05:23:41.914Z,61.20
2018-09-03T05:26:10.560Z,61.30
2018-09-03T05:28:39.071Z,61.60
2018-09-03T05:31:07.491Z,61.70
2018-09-03T05:33:35.876Z,61.90
2018-09-03T05:36:04.250Z,62.00
2018-09-03T05:38:32.623Z,62.20
2018-09-03T05:41:01.285Z,62.30
2018-09-03T05:43:29.816Z,62.30
2018-09-03T05:45:58.346Z,62.60
2018-09-03T05:48:27.085Z,62.60
2018-09-03T05:50:55.893Z,62.70
2018-09-03T05:53:24.561Z,62.80
2018-09-03T05:55:53.584Z,63.00
2018-09-03T05:58:22.219Z,63.10
2018-09-03T06:00:51.000Z,63.20
2018-09-03T06:03:19.500Z,63.30
2018-09-03T06:05:48.107Z,63.30
2018-09-03T06:08:16.745Z,63.50
2018-09-03T06:10:45.419Z,63.70
2018-09-03T06:13:14.397Z,63.70
2018-09-03T06:15:42.985Z,63.60
2018-09-03T06:18:11.471Z,63.70
2018-09-03T06:20:39.811Z,63.80
2018-09-03T06:23:09.178Z,63.90
2018-09-03T06:25:37.838Z,64.10
2018-09-03T06:28:06.430Z,64.30
2018-09-03T06:30:35.382Z,64.40
2018-09-03T06:33:03.967Z,64.60
2018-09-03T06:35:32.441Z,64.50
2018-09-03T06:38:00.856Z,64.60
2018-09-03T06:40:29.499Z,64.70
2018-09-03T06:42:57.941Z,65.00
2018-09-03T06:45:26.507Z,64.60
2018-09-03T06:47:55.040Z,64.80
2018-09-03T06:50:23.890Z,64.80
2018-09-03T06:52:52.770Z,64.90
2018-09-03T06:55:21.512Z,64.90
2018-09-03T06:57:49.951Z,64.90
2018-09-03T07:00:19.290Z,65.00
2018-09-03T07:02:48.030Z,65.00
2018-09-03T07:05:17.119Z,65.00
2018-09-03T07:07:45.782Z,64.90
2018-09-03T07:10:14.535Z,65.10
2018-09-03T07:12:43.555Z,65.20
2018-09-03T07:15:12.274Z,65.50
2018-09-03T07:17:41.044Z,65.70
2018-09-03T07:20:09.564Z,66.00
2018-09-03T07:22:37.978Z,66.40
2018-09-03T07:25:06.461Z,67.30
2018-09-03T07:27:35.027Z,67.80
2018-09-03T07:30:03.519Z,68.50
2018-09-03T07:32:31.886Z,68.40
2018-09-03T07:35:00.280Z,68.50
2018-09-03T07:37:28.648Z,69.00
2018-09-03T07:39:57.146Z,69.00
2018-09-03T07:42:25.554Z,68.80
2018-09-03T07:44:54.279Z,69.00
2018-09-03T07:47:22.625Z,69.10
2018-09-03T07:49:50.967Z,69.00
2018-09-03T07:52:19.432Z,69.00
2018-09-03T07:54:47.910Z,69.20
2018-09-03T07:57:16.304Z,69.30
2018-09-03T07:59:44.801Z,69.50
2018-09-03T08:02:13.271Z,69.30
2018-09-03T08:04:41.657Z,69.00
2018-09-03T08:07:10.919Z,68.10
2018-09-03T08:09:39.502Z,68.20
2018-09-03T08:12:08.001Z,68.10
2018-09-03T08:14:36.362Z,68.20
2018-09-03T08:17:04.945Z,68.30
2018-09-03T08:19:33.323Z,67.50
2018-09-03T08:22:02.231Z,67.60
2018-09-03T08:24:30.606Z,66.80
2018-09-03T08:26:59.230Z,67.00
2018-09-03T08:29:27.559Z,66.70
2018-09-03T08:31:56.011Z,66.30
2018-09-03T08:34:25.489Z,66.40
2018-09-03T08:36:54.737Z,65.10
2018-09-03T08:39:23.551Z,64.50
2018-09-03T08:41:53.013Z,64.30
2018-09-03T08:44:22.597Z,64.00
2018-09-03T08:46:51.961Z,64.80
2018-09-03T08:49:20.872Z,64.20
2018-09-03T08:51:49.853Z,64.20
2018-09-03T08:54:18.559Z,63.50
2018-09-03T08:56:48.124Z,63.50
2018-09-03T08:59:16.791Z,63.50
2018-09-03T09:01:45.985Z,63.90
2018-09-03T09:04:14.826Z,63.50
2018-09-03T09:06:43.510Z,64.00
2018-09-03T09:09:12.937Z,62.50
2018-09-03T09:11:42.732Z,62.30
2018-09-03T09:14:12.178Z,61.90
2018-09-03T09:16:41.571Z,61.00
2018-09-03T09:19:10.647Z,60.70
2018-09-03T09:21:39.558Z,61.10
2018-09-03T09:24:09.054Z,60.90
2018-09-03T09:26:38.341Z,60.60
2018-09-03T09:29:07.758Z,61.00
2018-09-03T09:31:36.107Z,60.40
2018-09-03T09:34:04.631Z,60.10
2018-09-03T09:36:33.142Z,59.60
2018-09-03T09:39:01.828Z,60.00
2018-09-03T09:41:33.114Z,59.70
2018-09-03T09:44:02.601Z,60.30
2018-09-03T09:46:31.354Z,59.70
2018-09-03T09:48:59.804Z,59.80
2018-09-03T09:51:28.444Z,59.20
2018-09-03T09:53:56.938Z,59.50
2018-09-03T09:56:25.299Z,59.60
2018-09-03T09:58:53.872Z,59.50
2018-09-03T10:01:27.809Z,59.20
2018-09-03T10:03:56.203Z,58.80
2018-09-03T10:06:24.645Z,59.50
2018-09-03T10:08:53.347Z,59.10
2018-09-03T10:11:21.685Z,58.60
2018-09-03T10:13:50.142Z,58.70
2018-09-03T10:16:18.842Z,58.70
2018-09-03T10:18:47.260Z,58.10
2018-09-03T10:21:15.610Z,58.10
2018-09-03T10:23:44.011Z,58.50
2018-09-03T10:26:12.467Z,58.50
2018-09-03T10:28:41.167Z,57.80
2018-09-03T10:31:09.567Z,56.70
2018-09-03T10:33:37.946Z,57.00
2018-09-03T10:36:06.316Z,57.20
2018-09-03T10:38:34.738Z,56.90
2018-09-03T10:41:03.146Z,56.50
2018-09-03T10:43:31.674Z,56.50
2018-09-03T10:46:00.031Z,56.20
2018-09-03T10:48:28.514Z,56.30
2018-09-03T10:50:57.258Z,56.70
2018-09-03T10:53:26.306Z,56.90
2018-09-03T10:55:54.982Z,57.10
2018-09-03T10:58:24.039Z,57.20
2018-09-03T11:00:53.162Z,57.80
2018-09-03T11:03:22.614Z,57.60
2018-09-03T11:05:51.436Z,57.50
2018-09-03T11:08:20.479Z,57.80
2018-09-03T11:10:49.924Z,57.90
2018-09-03T11:13:19.417Z,57.40
2018-09-03T11:15:48.261Z,57.30
2018-09-03T11:18:17.554Z,57.90
2018-09-03T11:20:46.898Z,57.90
2018-09-03T11:23:15.633Z,57.70
2018-09-03T11:25:44.218Z,57.70
2018-09-03T11:28:13.364Z,58.10
2018-09-03T11:30:42.638Z,59.00
2018-09-03T11:33:12.090Z,58.30
2018-09-03T11:35:41.880Z,58.50
2018-09-03T11:38:11.211Z,58.30
2018-09-03T11:40:40.304Z,58.20
2018-09-03T11:43:09.673Z,58.00
2018-09-03T11:45:38.817Z,58.00
2018-09-03T11:48:07.635Z,58.30
2018-09-03T11:50:36.058Z,56.80
2018-09-03T11:53:04.618Z,57.30
2018-09-03T11:55:33.019Z,57.90
2018-09-03T11:58:01.452Z,58.00
2018-09-03T12:00:31.167Z,58.60
2018-09-03T12:03:00.007Z,57.70
2018-09-03T12:05:29.111Z,57.90
2018-09-03T12:07:57.491Z,58.20
2018-09-03T12:10:26.022Z,58.50
2018-09-03T12:12:54.537Z,57.90
2018-09-03T12:15:28.283Z,56.70
2018-09-03T12:17:56.715Z,56.40
2018-09-03T12:20:30.844Z,56.20
2018-09-03T12:22:59.425Z,56.10
2018-09-03T12:25:27.846Z,56.40
2018-09-03T12:27:56.648Z,56.00
2018-09-03T12:30:25.015Z,55.50
2018-09-03T12:32:53.453Z,56.10
2018-09-03T12:35:21.912Z,56.10
2018-09-03T12:37:50.287Z,56.40
2018-09-03T12:40:18.894Z,56.50
2018-09-03T12:42:47.414Z,56.50
2018-09-03T12:45:15.809Z,56.60
2018-09-03T12:47:44.339Z,56.70
2018-09-03T12:50:12.830Z,56.60
2018-09-03T12:52:41.220Z,57.00
2018-09-03T12:55:09.708Z,57.00
2018-09-03T12:57:38.161Z,57.80
2018-09-03T13:00:06.652Z,58.10
2018-09-03T13:02:39.421Z,58.00
2018-09-03T13:05:03.732Z,58.30
2018-09-03T13:07:32.184Z,58.10
2018-09-03T13:10:00.594Z,58.90
2018-09-03T13:12:29.052Z,59.40
2018-09-03T13:14:58.254Z,59.60
2018-09-03T13:17:26.772Z,59.50
2018-09-03T13:19:55.172Z,60.00
2018-09-03T13:22:23.618Z,60.00
2018-09-03T13:24:52.076Z,60.10
2018-09-03T13:27:20.466Z,60.00
2018-09-03T13:29:48.857Z,60.60
2018-09-03T13:32:17.343Z,59.60
2018-09-03T13:34:45.977Z,59.50
2018-09-03T13:37:14.336Z,59.50
2018-09-03T13:39:42.751Z,59.60
2018-09-03T13:42:11.325Z,59.60
2018-09-03T13:44:39.709Z,59.30
2018-09-03T13:47:08.174Z,58.80
2018-09-03T13:49:37.005Z,58.30
2018-09-03T13:52:06.397Z,58.80
2018-09-03T13:54:36.092Z,58.90
2018-09-03T13:57:05.224Z,59.50
2018-09-03T13:59:33.658Z,59.20
2018-09-03T14:02:02.273Z,59.30
2018-09-03T14:04:30.727Z,59.40
2018-09-03T14:06:59.426Z,59.70
2018-09-03T14:09:27.990Z,59.30
2018-09-03T14:11:56.461Z,59.10
2018-09-03T14:14:24.871Z,59.50
2018-09-03T14:16:53.355Z,59.10
2018-09-03T14:19:21.784Z,58.90
2018-09-03T14:21:50.153Z,58.80
2018-09-03T14:24:18.571Z,59.00
2018-09-03T14:26:47.449Z,60.00
2018-09-03T14:29:15.926Z,59.30
2018-09-03T14:31:44.333Z,59.60
2018-09-03T14:34:12.726Z,59.00
2018-09-03T14:36:41.246Z,58.40
2018-09-03T14:39:11.392Z,58.20
2018-09-03T14:41:40.116Z,58.30
2018-09-03T14:44:09.306Z,58.00
2018-09-03T14:46:37.723Z,58.00
2018-09-03T14:49:06.194Z,57.70
2018-09-03T14:51:34.670Z,58.30
2018-09-03T14:54:03.225Z,58.20
2018-09-03T14:56:31.668Z,58.90
2018-09-03T14:59:00.060Z,58.50
2018-09-03T15:01:28.451Z,58.40
2018-09-03T15:03:56.893Z,59.20
2018-09-03T15:06:25.256Z,59.50
2018-09-03T15:08:53.930Z,59.10
2018-09-03T15:11:22.297Z,58.70
2018-09-03T15:13:53.506Z,58.70
2018-09-03T15:16:21.935Z,58.70
2018-09-03T15:18:50.374Z,59.30
2018-09-03T15:21:18.886Z,59.40
2018-09-03T15:23:47.257Z,58.90
2018-09-03T15:26:16.023Z,58.90
2018-09-03T15:28:44.438Z,58.90
2018-09-03T15:31:12.836Z,58.90
2018-09-03T15:33:41.483Z,59.40
2018-09-03T15:36:10.240Z,58.30
2018-09-03T15:38:38.631Z,58.70
2018-09-03T15:41:07.704Z,59.10
2018-09-03T15:43:36.092Z,59.30
2018-09-03T15:46:05.479Z,59.10
2018-09-03T15:48:35.153Z,59.50
2018-09-03T15:51:03.866Z,59.10
2018-09-03T15:53:34.187Z,59.70
2018-09-03T15:56:04.491Z,59.00
2018-09-03T15:58:34.595Z,58.60
2018-09-03T16:01:03.668Z,58.40
2018-09-03T16:03:33.426Z,58.10
2018-09-03T16:06:02.221Z,57.60
2018-09-03T16:08:30.816Z,57.60
2018-09-03T16:10:59.869Z,57.40
2018-09-03T16:13:28.874Z,58.00
2018-09-03T16:15:57.855Z,58.60
2018-09-03T16:18:26.997Z,58.10
2018-09-03T16:20:55.901Z,58.00
2018-09-03T16:23:25.011Z,57.70
2018-09-03T16:25:54.221Z,57.70
2018-09-03T16:28:23.451Z,58.20
2018-09-03T16:30:52.988Z,58.00
2018-09-03T16:33:22.411Z,57.50
2018-09-03T16:35:51.344Z,57.00
2018-09-03T16:38:19.984Z,57.50
2018-09-03T16:40:48.361Z,58.10
2018-09-03T16:43:16.819Z,57.60
2018-09-03T16:45:45.495Z,57.30
2018-09-03T16:48:13.917Z,57.70
2018-09-03T16:50:42.401Z,58.00
2018-09-03T16:53:10.836Z,58.10
2018-09-03T16:55:39.366Z,58.20
2018-09-03T16:58:07.903Z,58.30
2018-09-03T17:00:36.307Z,58.40
2018-09-03T17:03:04.904Z,58.70
2018-09-03T17:05:33.389Z,58.60
2018-09-03T17:08:02.248Z,58.50
2018-09-03T17:10:30.877Z,58.70
2018-09-03T17:12:59.336Z,59.30
2018-09-03T17:15:27.746Z,60.00
2018-09-03T17:17:56.129Z,59.60
2018-09-03T17:20:24.649Z,59.80
2018-09-03T17:22:53.083Z,60.10
2018-09-03T17:25:22.457Z,59.90
2018-09-03T17:27:51.897Z,59.90
2018-09-03T17:30:21.623Z,60.60
2018-09-03T17:32:50.849Z,60.70
2018-09-03T17:35:19.934Z,61.10
2018-09-03T17:37:49.333Z,61.40
2018-09-03T17:40:18.491Z,61.70
2018-09-03T17:42:47.577Z,61.80
2018-09-03T17:45:16.934Z,62.10
2018-09-03T17:47:46.184Z,62.10
2018-09-03T17:50:15.273Z,62.10
2018-09-03T17:52:44.938Z,62.60
2018-09-03T17:55:13.837Z,63.00
2018-09-03T17:57:43.032Z,63.40
2018-09-03T18:00:12.645Z,63.60
2018-09-03T18:02:41.780Z,63.50
2018-09-03T18:05:11.390Z,63.60
2018-09-03T18:07:40.813Z,63.70
2018-09-03T18:10:09.620Z,64.00
2018-09-03T18:12:39.295Z,64.20
2018-09-03T18:15:08.767Z,64.00
2018-09-03T18:17:38.164Z,64.20
2018-09-03T18:20:07.205Z,64.20
2018-09-03T18:22:36.504Z,64.60
2018-09-03T18:25:05.515Z,64.50
2018-09-03T18:27:34.782Z,64.60
2018-09-03T18:30:03.750Z,64.70
2018-09-03T18:32:32.929Z,64.90
2018-09-03T18:35:02.478Z,65.00
2018-09-03T18:37:32.180Z,64.90
2018-09-03T18:40:01.949Z,65.10
2018-09-03T18:42:31.507Z,64.80
2018-09-03T18:45:00.721Z,64.90
2018-09-03T18:47:30.368Z,65.00
2018-09-03T18:49:59.900Z,65.30
2018-09-03T18:52:29.387Z,65.40
2018-09-03T18:54:59.620Z,65.80
2018-09-03T18:57:28.592Z,66.00
2018-09-03T18:59:57.228Z,66.00
2018-09-03T19:02:25.677Z,66.10
2018-09-03T19:04:54.408Z,66.20
2018-09-03T19:07:23.128Z,66.20
2018-09-03T19:09:51.726Z,66.10
2018-09-03T19:12:20.183Z,65.90
2018-09-03T19:14:48.946Z,66.10
2018-09-03T19:17:17.422Z,66.30
2018-09-03T19:19:46.006Z,66.60
2018-09-03T19:22:14.733Z,66.90
2018-09-03T19:24:43.557Z,66.90
2018-09-03T19:27:12.037Z,67.00
2018-09-03T19:29:40.858Z,66.90
2018-09-03T19:32:09.337Z,67.00
2018-09-03T19:34:37.806Z,67.10
2018-09-03T19:37:06.277Z,66.70
2018-09-03T19:39:34.828Z,66.60
2018-09-03T19:44:38.160Z,67.40
2018-09-03T19:47:06.663Z,67.80
2018-09-03T19:49:35.208Z,67.90
2018-09-03T19:52:03.788Z,68.00
2018-09-03T19:54:32.172Z,67.70
2018-09-03T19:57:00.517Z,67.90
2018-09-03T19:59:29.035Z,68.00
2018-09-03T20:01:57.548Z,67.90
2018-09-03T20:04:25.979Z,68.00
2018-09-03T20:06:54.510Z,68.00
2018-09-03T20:09:23.051Z,68.10
2018-09-03T20:11:51.586Z,68.10
2018-09-03T20:14:20.152Z,68.10
2018-09-03T20:16:48.640Z,68.20
2018-09-03T20:19:17.120Z,69.10
2018-09-03T20:21:45.595Z,68.70
2018-09-03T20:24:14.116Z,68.70
2018-09-03T20:26:42.545Z,68.70
2018-09-03T20:29:10.950Z,68.90
2018-09-03T20:31:39.420Z,68.90
2018-09-03T20:34:07.800Z,68.80
2018-09-03T20:36:36.349Z,68.80
2018-09-03T20:39:05.778Z,69.10
2018-09-03T20:41:34.218Z,69.80
2018-09-03T20:44:02.730Z,69.80
2018-09-03T20:46:31.219Z,70.20
2018-09-03T20:49:00.291Z,70.50
2018-09-03T20:51:29.045Z,70.60
2018-09-03T20:53:57.386Z,70.90
2018-09-03T20:56:26.091Z,71.20
2018-09-03T20:58:54.663Z,71.70
2018-09-03T21:01:23.080Z,71.70
2018-09-03T21:03:51.651Z,71.90
2018-09-03T21:06:20.056Z,71.90
2018-09-03T21:08:48.509Z,71.90
2018-09-03T21:11:16.975Z,72.10
2018-09-03T21:13:45.423Z,72.30
2018-09-03T21:16:13.860Z,72.70
2018-09-03T21:18:43.007Z,73.00
2018-09-03T21:21:11.489Z,73.30
2018-09-03T21:23:39.870Z,73.60
2018-09-03T21:26:08.252Z,73.80
2018-09-03T21:28:36.746Z,74.00
2018-09-03T21:31:05.123Z,74.00
2018-09-03T21:33:33.590Z,73.60
2018-09-03T21:36:02.157Z,73.60
2018-09-03T21:38:30.637Z,74.10
2018-09-03T21:40:59.164Z,74.10
2018-09-03T21:43:27.849Z,74.30
2018-09-03T21:45:56.629Z,73.80
2018-09-03T21:48:26.086Z,73.80
2018-09-03T21:50:55.039Z,73.90
2018-09-03T21:53:24.468Z,73.90
2018-09-03T21:55:53.131Z,73.90
2018-09-03T21:58:21.607Z,73.80
2018-09-03T22:00:50.078Z,73.70
2018-09-03T22:03:18.447Z,73.70
2018-09-03T22:05:46.910Z,73.60
2018-09-03T22:08:15.471Z,73.70
2018-09-03T22:10:44.087Z,73.70
2018-09-03T22:13:12.453Z,74.00
2018-09-03T22:15:40.951Z,74.00
2018-09-03T22:18:09.961Z,74.00
2018-09-03T22:20:38.653Z,74.10
2018-09-03T22:23:07.191Z,74.30
2018-09-03T22:25:36.076Z,74.10
2018-09-03T22:28:04.588Z,74.10
2018-09-03T22:30:34.003Z,74.20
2018-09-03T22:33:02.350Z,74.30
2018-09-03T22:35:30.747Z,74.20
2018-09-03T22:37:59.190Z,74.30
2018-09-03T22:40:27.716Z,74.30
2018-09-03T22:42:56.139Z,74.30
2018-09-03T22:45:24.584Z,74.40
2018-09-03T22:47:52.964Z,74.50
2018-09-03T22:50:21.395Z,74.40
2018-09-03T22:52:49.846Z,74.30
2018-09-03T22:55:18.466Z,74.30
2018-09-03T22:57:46.863Z,74.30
2018-09-03T23:00:15.308Z,74.30
2018-09-03T23:02:46.083Z,74.40
2018-09-03T23:05:14.625Z,74.50
2018-09-03T23:07:43.021Z,75.20
2018-09-03T23:10:11.455Z,74.50
2018-09-03T23:12:39.913Z,74.50
2018-09-03T23:15:09.027Z,74.50
2018-09-03T23:17:37.389Z,74.70
2018-09-03T23:20:05.826Z,74.80
2018-09-03T23:22:34.295Z,74.80
2018-09-03T23:25:02.722Z,74.70
2018-09-03T23:27:31.114Z,74.60
2018-09-03T23:29:59.676Z,74.50
2018-09-03T23:32:28.083Z,74.60
2018-09-03T23:34:56.509Z,74.60
2018-09-03T23:37:24.931Z,74.60
2018-09-03T23:39:53.734Z,74.90
2018-09-03T23:42:22.949Z,75.20
2018-09-03T23:44:51.294Z,75.30
2018-09-03T23:47:19.743Z,75.00
2018-09-03T23:49:48.236Z,75.00
2018-09-03T23:52:16.637Z,75.10
2018-09-03T23:54:45.182Z,75.20
2018-09-03T23:57:13.688Z,75.30
2018-09-03T23:59:42.052Z,75.40
